2017 La Ronge Don Allen Saskaloppet | Zone4.ca

2017 La Ronge Don Allen Saskaloppet

Date: Mar 4, 2017
Official  Results
Location: Don Allen Trails, La Ronge
Host Club: La Ronge Ski Club

Organizing Committee
Chair:  Dorothy Looyestein 
Obs. Time:
Weather:  Light snow
Air Temp: - 8 C to - 12 C Wind: N 25 km/hr
Trail: Good, thin base

3-km M 18 & under 3 km. Classic\Free Mass Start    
PL Bib Name City Time Diff
1 805 Ben Mayo La Ronge 0:19:28.0  
2 802 Tobias Cooper La Ronge 0:22:00.0 +2:32.0
3 803 Kale LeMaigre Ile a la Crosse 0:25:09.0 +5:41.0
4 815 Cohen Galloway Air Ronge 0:27:37.0 +8:09.0
5 806 Lindon Fitch Air Ronge 0:30:00.0 +10:32.0
6 801 Colm English Saskatoon 0:37:56.0 +18:28.0
7 804 Jon Paul Ratt La Ronge 0:39:05.0 +19:37.0
8 827 Jason Vanderkracht Bell's Point 1:03:09.0 +43:41.0
9 813 Tyler Charles Bell's Point 1:04:48.0 +45:20.0
10 807 Darnell Ratt La Ronge 1:09:11.0 +49:43.0
DNF 809 Jayce Roberts Stanley Mission *** ***

3-km F 18 & under 3 km. Classic\Free Mass Start    
PL Bib Name City Time Diff
1 828 Serenity Mack La Ronge 0:22:00.0  
2 833 Brandy Roberts Stanley Mission 0:33:21.0 +11:21.0
3 820 Alina Mack La Ronge 0:34:11.0 +12:11.0
4 819 Leah Butt Ile a la Crosse 0:35:25.0 +13:25.0
5 829 Bryn Chester La Ronge 0:39:09.0 +17:09.0
6 823 Noelle Cooper La Ronge 0:41:56.0 +19:56.0
6 830 Casey Bernardin La Ronge 0:41:56.0 +19:56.0
8 818 Makayla Ross La Ronge 0:42:41.0 +20:41.0
9 816 Sela Starnyski La Ronge 0:42:46.0 +20:46.0
10 817 Riel Shakotko Saskatoon 0:45:05.0 +23:05.0
11 836 Samantha Clay Bulyea 0:45:35.0 +23:35.0
12 832 Cassidy Starnyski La Ronge 0:49:45.0 +27:45.0
13 821 Skye Eninew La Ronge 0:50:18.0 +28:18.0
14 824 Abigail Clay Bulyea 1:06:39.0 +44:39.0
15 822 Abigail Birkham Ile a la Crosse 2:00:23.0 +1:38:23.0
16 825 Naomi Wall Saskatoon 2:12:22.0 +1:50:22.0
DNF 826 Anna Wall Saskatoon *** ***

3-km M 19 & older 3 km. Classic\Free Mass Start    
PL Bib Name City Time Diff
1 837 Jamie Chester La Ronge 0:39:09.0  

3-km F 19 & older 3 km. Classic\Free Mass Start    
PL Bib Name City Time Diff
1 838 Jody Laliberte La Ronge 0:19:30.0  
2 839 Lindsay Fitch Air Ronge 0:30:01.0 +10:31.0
3 840 Rosemary Scherman Saskatoon 0:53:47.0 +34:17.0
4 841 Carol Nordal Bulyea 1:06:38.0 +47:08.0

10-km M 14 & under 10 km. Classic\Free Mass Start    
PL Bib Name City Time Diff
1 101 William McGonigle Ile a la Crosse 1:00:16.0  
2 114 Carter Corrigal Ile a la Crosse 1:13:50.0 +13:34.0
3 110 Drew Ahenakew Air Ronge 1:18:43.0 +18:27.0
4 112 Lachlan Andrews Air Ronge 1:31:45.0 +31:29.0
5 105 Alex Bernardin La Ronge 1:40:18.0 +40:02.0
6 113 Winston Ratt Ile a la Crosse 1:42:12.0 +41:56.0
7 123 Oliver Bourassa Saskatoon 1:42:59.0 +42:43.0
8 121 Luke Sampson Air Ronge 2:08:38.0 +1:08:22.0
9 103 Samuel Tonn La Ronge 2:16:56.0 +1:16:40.0
10 120 Todd McKenzie Stanley Mission 2:38:48.0 +1:38:32.0
11 130 Charlie Favel Stanley Mission 2:38:55.0 +1:38:39.0
12 126 Baylee Roberts Stanley Mission 2:42:24.0 +1:42:08.0
13 115 Daniel Roberts Stanley Mission 2:42:39.0 +1:42:23.0
14 106 Parker Layton La Ronge 3:28:39.0 +2:28:23.0
15 108 Karlan Lyons Air Ronge 3:30:04.0 +2:29:48.0
DNF 104 Lyle Carlson LaRonge *** ***
DNF 107 Ayden Carlson La Ronge *** ***
DNF 119 Ashton Cook Bell's Point *** ***
DSQ 102 Alexander Sampson Air Ronge *** ***
DSQ 111 Elliott Bourassa Saskatoon *** ***

10-km F 14 & under 10 km. Classic\Free Mass Start    
PL Bib Name City Time Diff
1 137 Hannah Roy Ile a la Crosse 1:44:32.0  
2 132 Brooklyn Gardiner Ile a la Crosse 1:45:11.0 +39.0
3 134 Tiarra Morin Ile a la Crosse 1:45:12.0 +40.0
4 143 Martha McGonigle Ile a la Crosse 1:45:13.0 +41.0
5 135 Paris Charles La Ronge 1:53:01.0 +8:29.0
6 148 Sierra Cook Bell's Point 1:54:56.0 +10:24.0
7 142 Hanna Chester La Ronge 2:11:22.0 +26:50.0
8 139 Amila Andrews La Ronge 2:14:13.0 +29:41.0
9 118 Rose Halkett Bell's Point 2:15:23.0 +30:51.0
10 146 Helen Merasty Stanley Mission 2:17:30.0 +32:58.0
11 131 Kaleigh Laliberte Ile a la Crosse 2:17:41.0 +33:09.0
12 150 Elana McKenzie Ile a la Crosse 2:19:31.0 +34:59.0
13 133 Demi Ahenakew Air Ronge 2:31:56.0 +47:24.0
14 138 Ruby Harrington La Ronge 2:33:30.0 +48:58.0
15 140 Amelia Putz Air Ronge 3:52:24.0 +2:07:52.0
DNF 149 Hayden Lafaver Bell's Point *** ***
DSQ 147 Hailey Roberts Stanley Mission *** ***

10-km M 15 to 18 10 km. Classic\Free Mass Start    
PL Bib Name City Time Diff
1 151 Jesse Hepworth Air Ronge 1:53:44.0  

10-km F 15 to 18 10 km. Classic\Free Mass Start    
PL Bib Name City Time Diff
1 152 Tanika Holinaty Air Ronge 1:31:05.0  

10-km M 19 & older 10 km. Classic\Free Mass Start    
PL Bib Name City Time Diff
1 904 Nathan Forester La Ronge 1:01:05.0  
2 163 Martin Green Air Ronge 1:24:27.0 +23:22.0
3 905 Warren Koch   1:30:58.0 +29:53.0
4 157 Martin Bernardin La Ronge 1:40:19.0 +39:14.0
5 161 Dean Squires La Ronge 1:40:20.0 +39:15.0
6 158 Brian Scherman Saskatoon 1:42:59.0 +41:54.0
7 160 Reid McGonigle Ile a la Crosse 1:45:13.0 +44:08.0
8 159 Corey Nordal Bulyea 2:06:16.0 +1:05:11.0
9 153 Gabe Andrews La Ronge 2:14:14.0 +1:13:09.0
10 155 Jonathan Tonn La Ronge 2:16:57.0 +1:15:52.0
11 156 Peter Knudsen Air Ronge 2:27:15.0 +1:26:10.0
DSQ 154 David Sampson Air Ronge *** ***

10-km F 19 & older 10 km. Classic\Free Mass Start    
PL Bib Name City Time Diff
1 901 Sonia Rees Saskatoon 0:56:21.0  
2 169 Darcie McGonigle Ile a la Crosse 1:05:59.0 +9:38.0
3 180 Jenna Clark La Ronge 1:13:57.0 +17:36.0
4 171 Colleen Clark La Ronge 1:14:52.0 +18:31.0
5 177 Nichelle Bedford Flin Flon 1:15:46.0 +19:25.0
6 902 Cheyenne Ulriksen Prince Albert 1:20:05.0 +23:44.0
7 172 Johanna Kaiser La Ronge 1:20:37.0 +24:16.0
8 170 Valerie Zink Pasqua Lake 1:27:50.0 +31:29.0
9 178 Robyn Klassen La Ronge 1:32:13.0 +35:52.0
10 168 Marian Andrews Air Ronge 1:32:22.0 +36:01.0
11 166 Susan Gaudet Saskatoon 1:35:53.0 +39:32.0
12 174 Bonnie Werner La Ronge 1:40:20.0 +43:59.0
13 185 Donna Mirasty La Ronge 1:40:21.0 +44:00.0
14 183 Bernice Johnson-Laxdal Air Ronge 1:44:04.0 +47:43.0
15 903 Roseanne Dery   1:46:33.0 +50:12.0
16 175 Emily Sanderson La Ronge 2:02:50.0 +1:06:29.0
17 165 Shannon Poppy Christopher lake 2:06:34.0 +1:10:13.0
18 167 Carla Frohaug La Ronge 2:11:27.0 +1:15:06.0
19 179 Danielle Stephens Regina 2:13:04.0 +1:16:43.0
20 181 Wendy Ahenakew Air Ronge 2:34:07.0 +1:37:46.0
20 184 Kandice Harrington La Ronge 2:34:07.0 +1:37:46.0
22 173 Erin Layton Air Ronge 3:30:06.0 +2:33:45.0
23 182 Tamara Putz Air Ronge 3:52:29.0 +2:56:08.0
DSQ 176 Maggie Roberts Stanley Mission *** ***

20-km M 14 & under 20 km. Classic\Free Mass Start    
PL Bib Name City Time Diff
1 201 Kees Carriere Air Ronge 2:13:25.0  
2 206 Alistair English Saskatoon 3:05:18.0 +51:53.0
3 204 Nicholas Charles La Ronge 3:09:43.0 +56:18.0
4 202 Braydon Ratt La Ronge 3:44:28.0 +1:31:03.0
DSQ 200 Tod Starnyski La Ronge *** ***
DSQ 203 Luke Harrington La Ronge *** ***
DSQ 205 Hunter Halkett La Ronge *** ***

20-km F 14 & under 20 km. Classic\Free Mass Start    
PL Bib Name City Time Diff
1 208 Heidi Wall Saskatoon 3:05:56.0  
2 207 Julia Bourassa Saskatoon 3:06:49.0 +53.0
DSQ 209 Taryn Hamilton Air Ronge *** ***

20-km M 15 to 18 20 km. Classic\Free Mass Start    
PL Bib Name City Time Diff
1 212 Michio Green Air Ronge 1:29:46.0  
2 211 Grayden Bedford Flin Flon 1:40:09.0 +10:23.0

20-km F 15 to 18 20 km. Classic\Free Mass Start    
PL Bib Name City Time Diff
1 213 Jayme Woodhouse Mckenzie Air Ronge 1:38:22.0  

20-km M 19 & older 20 km. Classic\Free Mass Start    
PL Bib Name City Time Diff
1 220 Jason Watt Candle lake 1:19:33.0  
2 216 Evan Davies Ile a la Crosse 1:45:55.0 +26:22.0
3 215 Glenn Galloway Melfort 2:05:47.0 +46:14.0
4 214 Felix Merasty Stanley Mission 2:12:12.0 +52:39.0
5 219 Mary Eninew Air Ronge 3:47:21.0 +2:27:48.0
DSQ 217 Toshio Green Air Ronge *** ***

20-km F 19 & older 20 km. Classic\Free Mass Start    
PL Bib Name City Time Diff
1 223 Dionne Tatlow La Ronge 1:44:20.0  
2 225 Jennifer Mirasty Regina 2:12:14.0 +27:54.0
3 221 Sarah Brisbin Saskatoon 2:22:21.0 +38:01.0
4 226 Aileen Flaten Saskatoon 2:40:25.0 +56:05.0
5 224 Medbh English Saskatoon 3:05:20.0 +1:21:00.0
6 327 Cindy Ganes Saskatoon 3:06:32.0 +1:22:12.0
7 222 Maureen Bourassa Saskatoon 3:07:01.0 +1:22:41.0

30-km M 18 & under 30 km. Classic\Free Mass Start    
PL Bib Name City Time Diff
1 301 Ewan Simms Saskatoon 2:01:45.0  
2 304 Alex Wilson Shellbrook 2:17:20.0 +15:35.0
3 300 Griffin Harrington La Ronge 3:11:14.0 +1:09:29.0
4 302 Timothy Ratt La Ronge 3:35:31.0 +1:33:46.0
DSQ 303 Kaidan Andrews Air Ronge *** ***

30-km M 19 to 29 30 km. Classic\Free Mass Start    
PL Bib Name City Time Diff
1 305 Dylan Stryde Air Ronge 1:53:46.0  

30-km F 19 to 29 30 km. Classic\Free Mass Start    
PL Bib Name City Time Diff
1 306 Lauren Dyck Saskatoon 2:15:46.0  
2 307 Vicky Howse Saskatoon 5:11:55.0 +2:56:09.0

30-km M 30 to 39 30 km. Classic\Free Mass Start    
PL Bib Name City Time Diff
1 309 Michael Maggrah La Ronge 3:14:56.0  
DSQ 308 Nathan Andrews Air Ronge *** ***

30-km F 30 to 39 30 km. Classic\Free Mass Start    
PL Bib Name City Time Diff
1 310 Carolyn Ganes Saskatoon 3:06:32.0  

30-km M 40 to 49 30 km. Classic\Free Mass Start    
PL Bib Name City Time Diff
1 311 Stephan Bourassa Saskatoon 2:20:30.0  
2 312 Ian Rewcastle Herbert 3:10:04.0 +49:34.0

30-km F 40 to 49 30 km. Classic\Free Mass Start    
PL Bib Name City Time Diff
1 313 Kary Hepworth Air Ronge 3:14:40.0  

30-km M 50 to 59 30 km. Classic\Free Mass Start    
PL Bib Name City Time Diff
1 316 Bruce Simms Saskatoon 2:37:53.0  
2 318 Duane Davis Creighton 2:49:26.0 +11:33.0
3 314 Dean Grove Flin Flon 3:19:43.0 +41:50.0
4 315 Robert Mackenzie La Ronge 3:26:16.0 +48:23.0
5 317 Brad Lefebvre Humboldt 3:31:37.0 +53:44.0

30-km F 50 to 59 30 km. Classic\Free Mass Start    
PL Bib Name City Time Diff
1 319 Svenja Belaoussoff Shellbrook 3:40:56.0  

30-k M 60 & older 30 km. Classic\Free Mass Start    
PL Bib Name City Time Diff
1 325 Bernie Mazurik Saskatoon 2:27:23.0  
2 320 Ted Gaudet Saskatoon 3:00:49.0 +33:26.0
3 324 Gene Josephson Regina 3:16:05.0 +48:42.0
4 523 Roger Ganes Saskatoon 3:50:57.0 +1:23:34.0
5 321 Stephen Tomney AirRonge 4:21:13.0 +1:53:50.0

30-k F 60 & older 30 km. Classic\Free Mass Start    
PL Bib Name City Time Diff
1 326 Dorothy Josephson Regina 3:49:31.0  

45-km F 18 & under 45 km. Classic\Free Mass Start    
PL Bib Name City Time Diff
DSQ 500 Shannon Butler Saskatoon *** ***

45-km M 19 to 29 45 km. Classic\Free Mass Start    
PL Bib Name City Time Diff
1 501 Scott Fraser Saskatoon 2:30:43.0  
2 502 Jeremy Gaudet Saskatoon 3:42:52.0 +1:12:09.0

45-km F 19 to 29 45 km. Classic\Free Mass Start    
PL Bib Name City Time Diff
1 503 Haley Robinson La Ronge 3:01:37.0  

45-km M 30 to 39 45 km. Classic\Free Mass Start    
PL Bib Name City Time Diff
1 504 Barret Dunbar Saskatoon 2:30:46.0  
2 505 Daniel Irvine La Ronge 3:01:21.0 +30:35.0
3 506 Kieran Conway Pasqua Lake 4:31:27.0 +2:00:41.0

45-km M 40 to 49 45 km. Classic\Free Mass Start    
PL Bib Name City Time Diff
1 509 Ivan English Saskatoon 2:22:02.0  
2 510 Chris Wall Saskatoon 2:58:05.0 +36:03.0
3 511 Derek Birkham Ile a la Crosse 3:22:30.0 +1:00:28.0
4 507 Bryne Kowalchuk Entwistle 3:49:26.0 +1:27:24.0

45-km M 50 to 59 45 km. Classic\Free Mass Start    
PL Bib Name City Time Diff
1 513 Robin Butler Saskatoon 2:59:59.0  
2 512 Russell Mirasty La Ronge 4:01:21.0 +1:01:22.0

45-km F 50 to 59 45 km. Classic\Free Mass Start    
PL Bib Name City Time Diff
1 514 Kathy Butler Saskatoon 3:06:57.0  

45-km M 60 & older 45 km. Classic\Free Mass Start    
PL Bib Name City Time Diff
1 519 Ken English Saskatoon 3:04:06.0  
2 518 Sid Robinson La Ronge 4:24:03.0 +1:19:57.0
3 516 Amund Otterson Shellbrook 4:47:05.0 +1:42:59.0
4 517 Richard Koch Saskatoon 5:41:54.0 +2:37:48.0
DSQ 520 Bill Jeffery Prince Albert *** ***

45-km F 60 & older 45 km. Classic\Free Mass Start    
PL Bib Name City Time Diff
1 521 Brenda Urton Duck Lake 3:24:56.0  
DSQ 522 Joan Jeffery Prince Albert *** ***

45-km Kup Lt M 19 & up 45 km. Classic\Free Mass Start    
PL Bib Name City Lap1 Rnk Lap2 Rnk Time Diff
1 700 Brendon Zarazun La Ronge 1:15:46.0 (1) 4:15:57.0 (1) 5:31:43.0  
2 702 Daryl Sexsmith Saskatoon 1:45:29.0 (2) 4:54:36.0 (2) 6:40:05.0 +1:08:22.0
3 703 Randy Robinson Saskatoon 1:55:02.0 (3) 5:03:15.0 (3) 6:58:17.0 +1:26:34.0
4 701 Greg Lyndon La Ronge 2:13:38.0 (4) 6:10:36.0 (4) 8:24:14.0 +2:52:31.0

75-km Kup Mr M 19 & up 75 km. Classic\Free Mass Start    
PL Bib Name City Lap1 Rnk Lap2 Rnk Time Diff
1 708 Rob Weitemeyer Regina 2:03:25.0 (1) 3:52:25.0 (2) 5:55:50.0  
2 707 Ben Rutledge Regina 6:32:09.0 (3) 0:00:00.0 (1) 6:32:09.0 +36:19.0
3 706 Dave Bober Hudson Bay 4:04:04.0 (2) 7:32:32.0 (3) 11:36:36.0 +5:40:46.0

75-km Kup Mr F 19 & up 75 km. Classic\Free Mass Start    
PL Bib Name City Lap1 Rnk Lap2 Rnk Time Diff
1 705 Hilary Johnstone La Ronge 2:27:16.0 (1) 4:19:19.0 (1) 6:46:35.0  

75-km Kup Sq M 19 & up 75 km. Classic\Free Mass Start    
PL Bib Name City Lap1 Rnk Lap2 Rnk Time Diff
1 710 Ragnar Robinson Coronach 2:08:29.0 (1) 3:59:05.0 (1) 6:07:34.0  
2 709 Robert Howse Saskatoon 2:23:02.0 (2) 4:24:10.0 (2) 6:47:12.0 +39:38.0

75-km Kup Sq F 19 & up 75 km. Classic\Free Mass Start    
PL Bib Name City Lap1 Rnk Lap2 Rnk Time Diff
1 704 Nancy Howse Saskatoon 4:23:44.0 (1) 7:36:20.0 (1) 12:00:04.0  


Results are posted through an automated system by licenced clubs. For inquires about result corrections please contact the race organizer.

Copyright 2017 - Zone4 Systems zone4.ca       Privacy Policy     Delivery/Refund Policy     Terms of Service    Contact Zone4